Time;durP1;ratioP1;P1;durP2;ratioP2;P2;SDS_P1;SDS_P2;PMS_P1;PMS_P2;Temp;Humidity;BMP_temperature;BMP_pressure;BME280_temperature;BME280_humidity;BME280_pressure;Samples;Min_cycle;Max_cycle;Signal;HPM_P1;HPM_P2
2023/07/24 00:00:07;;;;;;;0.80;0.70;;;22.00;63.90;;;;;;6292898;28;20504;-68
2023/07/24 00:03:08;;;;;;;0.77;0.50;;;22.00;63.90;;;;;;6294165;28;20028;-68
2023/07/24 00:06:08;;;;;;;0.70;0.47;;;22.00;63.90;;;;;;6293489;28;20031;-68
2023/07/24 00:09:09;;;;;;;0.73;0.50;;;22.00;63.90;;;;;;6294122;28;20024;-68
2023/07/24 00:12:10;;;;;;;1.52;1.02;;;22.00;63.90;;;;;;6294457;28;20556;-68
2023/07/24 00:15:10;;;;;;;0.93;0.70;;;22.00;63.80;;;;;;6292817;28;20017;-68
2023/07/24 00:18:11;;;;;;;0.82;0.60;;;22.00;63.80;;;;;;6293974;28;20110;-68
2023/07/24 00:21:13;;;;;;;0.70;0.50;;;22.00;63.80;;;;;;6294085;28;20056;-68
2023/07/24 00:24:13;;;;;;;0.80;0.60;;;22.00;63.80;;;;;;6293971;28;20013;-68
2023/07/24 00:27:14;;;;;;;0.88;0.70;;;22.00;63.80;;;;;;6292573;28;20027;-68
2023/07/24 00:30:15;;;;;;;0.60;0.45;;;22.00;63.80;;;;;;6292794;28;20116;-68
2023/07/24 00:33:15;;;;;;;0.73;0.60;;;22.00;63.80;;;;;;6293531;28;20490;-68
2023/07/24 00:36:16;;;;;;;0.60;0.60;;;22.00;63.80;;;;;;6292455;28;20028;-68
2023/07/24 00:39:17;;;;;;;0.60;0.60;;;22.00;63.80;;;;;;6292825;28;20112;-68
2023/07/24 00:42:17;;;;;;;0.55;0.55;;;22.00;63.80;;;;;;6293587;28;20072;-68
2023/07/24 00:45:21;;;;;;;0.50;0.50;;;22.00;63.80;;;;;;6292353;28;20025;-68
2023/07/24 00:48:22;;;;;;;0.40;0.40;;;22.00;63.70;;;;;;6293701;28;20044;-68
2023/07/24 00:51:22;;;;;;;1.02;0.60;;;22.00;63.80;;;;;;6293834;28;20416;-68
2023/07/24 00:54:24;;;;;;;0.88;0.40;;;22.00;63.80;;;;;;6293470;28;20036;-68
2023/07/24 00:57:25;;;;;;;0.65;0.60;;;22.00;63.80;;;;;;6293503;28;20099;-68
2023/07/24 01:00:26;;;;;;;0.45;0.45;;;22.00;63.80;;;;;;6293497;28;20027;-69
2023/07/24 01:03:32;;;;;;;0.75;0.68;;;22.00;63.80;;;;;;6293197;28;20092;-68
2023/07/24 01:06:33;;;;;;;1.38;0.50;;;22.00;63.80;;;;;;6293317;28;20029;-68
2023/07/24 01:09:34;;;;;;;0.50;0.50;;;22.00;63.80;;;;;;6292341;28;20029;-68
2023/07/24 01:12:40;;;;;;;0.57;0.57;;;22.00;63.80;;;;;;6292421;28;20124;-68
2023/07/24 01:16:08;;;;;;;0.40;0.40;;;22.00;63.80;;;;;;6293717;28;20025;-68
2023/07/24 01:19:27;;;;;;;0.70;0.60;;;22.00;63.80;;;;;;6295750;28;20102;-68
2023/07/24 01:22:28;;;;;;;0.57;0.55;;;22.00;63.70;;;;;;6298165;28;20029;-68
2023/07/24 01:25:35;;;;;;;0.95;0.60;;;22.00;63.80;;;;;;6297516;28;20025;-68
2023/07/24 01:28:36;;;;;;;0.75;0.50;;;22.00;63.80;;;;;;6296496;28;20024;-68
2023/07/24 01:31:37;;;;;;;0.38;0.38;;;22.00;63.70;;;;;;6297720;28;20549;-68
2023/07/24 01:34:38;;;;;;;0.82;0.77;;;22.00;63.70;;;;;;6297156;28;20126;-68
2023/07/24 01:37:41;;;;;;;0.68;0.60;;;22.00;63.80;;;;;;6296191;28;20033;-68
2023/07/24 01:40:42;;;;;;;0.80;0.60;;;22.00;63.80;;;;;;6296288;28;20025;-68
2023/07/24 01:43:43;;;;;;;0.50;0.50;;;22.00;63.70;;;;;;6297464;28;20039;-68
2023/07/24 01:46:44;;;;;;;0.38;0.38;;;22.00;63.70;;;;;;6297020;28;20025;-68
2023/07/24 01:49:45;;;;;;;0.70;0.60;;;22.00;63.80;;;;;;6296055;28;20029;-68
2023/07/24 01:52:46;;;;;;;0.40;0.40;;;22.00;63.80;;;;;;6297039;28;20374;-68
2023/07/24 01:55:46;;;;;;;0.40;0.40;;;22.00;64.60;;;;;;6297162;28;20032;-68
2023/07/24 01:58:47;;;;;;;0.43;0.40;;;22.00;63.80;;;;;;6296973;28;20103;-68
2023/07/24 02:01:48;;;;;;;0.47;0.47;;;22.00;63.80;;;;;;6297291;28;20548;-68
2023/07/24 02:04:48;;;;;;;0.63;0.52;;;22.00;63.80;;;;;;6296726;28;20131;-68
2023/07/24 02:07:49;;;;;;;0.60;0.50;;;22.00;63.80;;;;;;6295403;28;20077;-68
2023/07/24 02:10:50;;;;;;;0.50;0.50;;;22.00;63.80;;;;;;6296715;28;20017;-68
2023/07/24 02:13:51;;;;;;;0.47;0.43;;;22.00;63.80;;;;;;6296836;28;20481;-68
2023/07/24 02:16:52;;;;;;;1.20;0.50;;;22.00;63.80;;;;;;6296455;28;20071;-68
2023/07/24 02:19:52;;;;;;;0.40;0.40;;;22.00;63.80;;;;;;6295140;28;20079;-68
2023/07/24 02:22:54;;;;;;;0.82;0.40;;;22.00;63.80;;;;;;6295150;28;20493;-68
2023/07/24 02:25:54;;;;;;;0.50;0.50;;;22.00;63.80;;;;;;6296288;28;20016;-68
2023/07/24 02:28:55;;;;;;;0.43;0.43;;;22.00;63.80;;;;;;6294828;28;20074;-67
2023/07/24 02:31:58;;;;;;;0.38;0.38;;;22.00;63.80;;;;;;6294348;28;20024;-68
2023/07/24 02:34:58;;;;;;;0.65;0.40;;;22.00;63.80;;;;;;6295965;28;20067;-68
2023/07/24 02:37:59;;;;;;;0.68;0.50;;;22.00;63.80;;;;;;6296094;28;20103;-68
2023/07/24 02:40:59;;;;;;;0.70;0.60;;;22.00;63.80;;;;;;6295822;28;20358;-68
2023/07/24 02:44:02;;;;;;;0.40;0.40;;;22.00;63.80;;;;;;6294894;28;20414;-68
2023/07/24 02:47:03;;;;;;;0.98;0.50;;;22.00;63.80;;;;;;6294247;28;20024;-68
2023/07/24 02:50:04;;;;;;;0.57;0.40;;;22.00;63.80;;;;;;6295854;28;20552;-68
2023/07/24 02:53:05;;;;;;;0.55;0.50;;;22.00;63.80;;;;;;6294354;28;20030;-68
2023/07/24 02:56:05;;;;;;;0.45;0.40;;;22.00;63.80;;;;;;6295398;28;20029;-68
2023/07/24 02:59:06;;;;;;;0.30;0.30;;;22.00;63.80;;;;;;6293950;28;20036;-68
2023/07/24 03:02:07;;;;;;;0.50;0.50;;;22.00;63.80;;;;;;6295635;28;20021;-68
2023/07/24 03:05:08;;;;;;;0.40;0.40;;;22.00;63.80;;;;;;6295476;28;20122;-68
2023/07/24 03:08:09;;;;;;;0.60;0.45;;;22.00;63.80;;;;;;6293853;28;20028;-68
2023/07/24 03:11:09;;;;;;;0.40;0.40;;;22.00;63.80;;;;;;6295220;28;20385;-68
2023/07/24 03:14:10;;;;;;;0.50;0.43;;;22.00;63.80;;;;;;6293777;28;20029;-68
2023/07/24 03:17:11;;;;;;;0.40;0.40;;;22.00;63.80;;;;;;6294962;28;20060;-68
2023/07/24 03:20:17;;;;;;;0.43;0.43;;;22.00;63.80;;;;;;6295085;28;20027;-68
2023/07/24 03:23:18;;;;;;;0.40;0.40;;;22.00;63.80;;;;;;6295172;28;20029;-68
2023/07/24 03:26:18;;;;;;;0.38;0.38;;;22.00;63.80;;;;;;6294715;28;20039;-68
2023/07/24 03:29:19;;;;;;;0.60;0.60;;;22.00;63.80;;;;;;6294811;28;20017;-68
2023/07/24 03:32:20;;;;;;;0.47;0.40;;;22.00;63.80;;;;;;6292972;28;20028;-68
2023/07/24 03:35:20;;;;;;;0.65;0.60;;;22.00;63.80;;;;;;6294834;28;20051;-68
2023/07/24 03:38:22;;;;;;;0.40;0.40;;;22.00;63.80;;;;;;6293206;28;20037;-68
2023/07/24 03:41:22;;;;;;;0.93;0.55;;;22.00;64.60;;;;;;6294462;28;20020;-68
2023/07/24 03:44:23;;;;;;;0.40;0.40;;;22.00;63.80;;;;;;6293282;28;20106;-68
2023/07/24 03:47:24;;;;;;;0.30;0.30;;;22.00;63.80;;;;;;6294333;28;20017;-68
2023/07/24 03:50:25;;;;;;;0.40;0.40;;;22.00;63.80;;;;;;6294278;28;20501;-68
2023/07/24 03:53:26;;;;;;;0.50;0.45;;;22.00;63.80;;;;;;6294586;28;20725;-68
2023/07/24 03:56:26;;;;;;;0.47;0.47;;;22.00;63.80;;;;;;6294212;28;20028;-68
2023/07/24 04:03:24;;;;;;;1.42;0.52;;;22.00;63.80;;;;;;6294739;28;20024;-68
2023/07/24 04:06:25;;;;;;;0.38;0.30;;;22.00;63.80;;;;;;6292816;28;20060;-68
2023/07/24 04:09:25;;;;;;;0.88;0.50;;;22.00;63.80;;;;;;6294150;28;20114;-68
2023/07/24 04:12:26;;;;;;;0.57;0.55;;;22.00;63.80;;;;;;6294055;28;20488;-68
2023/07/24 04:15:27;;;;;;;0.40;0.30;;;22.00;63.80;;;;;;6293094;28;20029;-68
2023/07/24 04:18:27;;;;;;;0.57;0.52;;;22.00;63.80;;;;;;6294189;28;20530;-68
2023/07/24 04:21:29;;;;;;;0.40;0.40;;;22.00;63.80;;;;;;6294023;28;20473;-68
2023/07/24 04:24:30;;;;;;;0.50;0.50;;;22.00;63.80;;;;;;6292681;28;20108;-68
2023/07/24 04:27:30;;;;;;;0.57;0.50;;;22.00;63.80;;;;;;6294101;28;20455;-68
2023/07/24 04:30:32;;;;;;;0.40;0.40;;;22.00;63.80;;;;;;6294120;28;20028;-70
2023/07/24 04:33:32;;;;;;;0.30;0.30;;;22.00;63.80;;;;;;6293902;28;20056;-70
2023/07/24 04:36:33;;;;;;;0.30;0.30;;;22.00;63.80;;;;;;6294007;28;20051;-70
2023/07/24 04:39:34;;;;;;;0.43;0.43;;;22.00;63.80;;;;;;6294002;28;20013;-69
2023/07/24 04:42:34;;;;;;;0.60;0.60;;;22.00;63.80;;;;;;6292555;28;20027;-69
2023/07/24 04:45:35;;;;;;;0.50;0.47;;;22.00;63.80;;;;;;6293872;28;20016;-70
2023/07/24 04:48:36;;;;;;;0.40;0.40;;;22.00;63.80;;;;;;6292630;28;20029;-69
2023/07/24 04:51:37;;;;;;;0.32;0.32;;;22.00;63.80;;;;;;6293846;28;20028;-70
2023/07/24 04:54:37;;;;;;;0.30;0.30;;;22.00;63.90;;;;;;6297315;28;20021;-70
2023/07/24 04:57:38;;;;;;;0.50;0.47;;;22.00;63.90;;;;;;6298398;28;20020;-69
2023/07/24 05:00:38;;;;;;;0.40;0.30;;;22.00;63.80;;;;;;6298453;28;20408;-69
2023/07/24 05:03:39;;;;;;;0.20;0.20;;;22.00;63.80;;;;;;6298402;28;20036;-70
2023/07/24 05:06:40;;;;;;;0.63;0.45;;;22.00;63.80;;;;;;6298447;28;20416;-69
2023/07/24 05:09:40;;;;;;;0.45;0.40;;;22.00;63.80;;;;;;6298060;28;20444;-69
2023/07/24 05:12:44;;;;;;;0.75;0.52;;;22.00;63.90;;;;;;6298138;28;20028;-69
2023/07/24 05:15:45;;;;;;;0.40;0.40;;;22.00;63.90;;;;;;6288181;28;20033;-69
2023/07/24 05:18:46;;;;;;;0.70;0.50;;;22.00;63.80;;;;;;6316243;28;20031;-69
2023/07/24 05:21:46;;;;;;;1.40;0.40;;;22.00;63.90;;;;;;6297578;28;20054;-69
2023/07/24 05:24:48;;;;;;;1.70;0.82;;;22.00;63.90;;;;;;6296460;28;20519;-69
2023/07/24 05:27:49;;;;;;;0.77;0.70;;;22.00;65.30;;;;;;6295826;28;20393;-69
2023/07/24 05:30:49;;;;;;;5.05;1.50;;;22.00;65.30;;;;;;6295166;28;20043;-71
2023/07/24 05:33:50;;;;;;;1.20;0.90;;;22.00;66.00;;;;;;6295344;28;20041;-70
2023/07/24 05:36:51;;;;;;;1.00;0.75;;;22.00;66.50;;;;;;6295255;28;20127;-70
2023/07/24 05:39:52;;;;;;;1.13;0.75;;;22.00;65.70;;;;;;6296257;28;20474;-70
2023/07/24 05:42:52;;;;;;;2.75;0.80;;;22.00;65.00;;;;;;6294826;28;20044;-68
2023/07/24 05:45:54;;;;;;;0.75;0.60;;;22.00;64.90;;;;;;6295760;28;20024;-68
2023/07/24 05:48:56;;;;;;;0.98;0.75;;;22.00;64.70;;;;;;6296029;28;20041;-68
2023/07/24 05:51:57;;;;;;;0.90;0.60;;;22.00;64.60;;;;;;6295834;28;20025;-68
2023/07/24 05:54:58;;;;;;;0.55;0.45;;;22.00;64.60;;;;;;6294502;28;20036;-68
2023/07/24 05:57:59;;;;;;;0.68;0.60;;;22.00;64.70;;;;;;6295791;28;20094;-68
2023/07/24 06:01:00;;;;;;;0.93;0.60;;;22.00;64.80;;;;;;6297943;28;20362;-68
2023/07/24 06:04:01;;;;;;;0.68;0.68;;;22.00;64.70;;;;;;6296717;28;20056;-68
2023/07/24 06:07:02;;;;;;;0.63;0.60;;;22.00;64.70;;;;;;6296166;28;20035;-68
2023/07/24 06:10:03;;;;;;;1.20;0.70;;;22.00;64.90;;;;;;6287295;28;20397;-68
2023/07/24 06:13:04;;;;;;;1.77;0.65;;;22.00;64.70;;;;;;6284223;28;20036;-68
2023/07/24 06:16:07;;;;;;;2.05;0.40;;;22.00;64.60;;;;;;6291075;28;20060;-68
2023/07/24 06:19:07;;;;;;;0.90;0.73;;;22.00;64.50;;;;;;6296931;28;20027;-68
2023/07/24 06:22:08;;;;;;;0.60;0.60;;;22.00;64.50;;;;;;6297384;28;20028;-68
2023/07/24 06:25:09;;;;;;;1.58;0.63;;;22.00;64.50;;;;;;6297341;28;20027;-68
2023/07/24 06:28:10;;;;;;;0.57;0.50;;;22.00;64.50;;;;;;6297254;28;20025;-68
2023/07/24 06:31:11;;;;;;;0.70;0.60;;;22.00;64.50;;;;;;6297222;28;20362;-68
2023/07/24 06:34:11;;;;;;;1.17;0.50;;;22.00;64.50;;;;;;6289870;28;20463;-68
2023/07/24 06:37:12;;;;;;;0.65;0.65;;;22.00;64.40;;;;;;6291108;28;20427;-68
2023/07/24 06:40:13;;;;;;;0.50;0.50;;;22.00;64.40;;;;;;6295767;28;20020;-68
2023/07/24 06:43:14;;;;;;;0.98;0.70;;;22.00;64.40;;;;;;6288942;28;20493;-68
2023/07/24 06:46:14;;;;;;;4.00;0.68;;;22.00;64.40;;;;;;6296757;28;20048;-68
2023/07/24 06:49:15;;;;;;;1.05;0.80;;;22.00;64.60;;;;;;6288178;28;20099;-68
2023/07/24 06:52:16;;;;;;;0.85;0.80;;;22.00;64.80;;;;;;6293333;28;20052;-68
2023/07/24 06:55:17;;;;;;;0.50;0.47;;;22.10;64.70;;;;;;6295463;28;20032;-67
2023/07/24 06:58:18;;;;;;;0.75;0.75;;;22.10;64.60;;;;;;6296551;28;20056;-68
2023/07/24 07:01:18;;;;;;;1.27;0.80;;;22.10;64.60;;;;;;6279179;28;20804;-66
2023/07/24 07:04:19;;;;;;;0.95;0.45;;;22.10;64.40;;;;;;6295945;28;20043;-68
2023/07/24 07:07:20;;;;;;;4.70;0.90;;;22.20;64.50;;;;;;6295869;28;20400;-67
2023/07/24 07:10:20;;;;;;;10.77;1.27;;;22.20;64.80;;;;;;6296068;28;20113;-68
2023/07/24 07:13:21;;;;;;;20.23;4.45;;;22.30;65.70;;;;;;6295744;28;20032;-68
2023/07/24 07:16:22;;;;;;;25.33;6.25;;;22.30;65.80;;;;;;6295467;28;20029;-67
2023/07/24 07:19:23;;;;;;;25.92;4.47;;;22.30;65.50;;;;;;6295874;28;20024;-68
2023/07/24 07:22:23;;;;;;;11.80;3.28;;;22.30;65.30;;;;;;6296266;28;20048;-68
2023/07/24 07:25:24;;;;;;;20.55;3.67;;;22.40;65.20;;;;;;6294995;28;20035;-68
2023/07/24 07:28:25;;;;;;;16.35;3.33;;;22.40;65.10;;;;;;6295141;28;20537;-68
2023/07/24 07:31:25;;;;;;;12.30;3.45;;;22.40;65.20;;;;;;6294593;28;20025;-68
2023/07/24 07:34:26;;;;;;;15.73;4.00;;;22.30;65.10;;;;;;6294524;28;20433;-69
2023/07/24 07:37:27;;;;;;;14.95;3.63;;;22.30;65.10;;;;;;6294654;28;20025;-67
2023/07/24 07:40:28;;;;;;;9.68;3.72;;;22.30;65.10;;;;;;6294701;28;20393;-68
2023/07/24 07:43:29;;;;;;;13.77;4.07;;;22.20;65.00;;;;;;6294939;28;20104;-67
2023/07/24 07:46:29;;;;;;;13.00;2.78;;;22.30;65.10;;;;;;6293983;28;20017;-67
2023/07/24 07:49:30;;;;;;;15.05;3.22;;;22.30;65.10;;;;;;6292748;28;20695;-67
2023/07/24 07:52:31;;;;;;;12.30;3.72;;;22.20;65.00;;;;;;6294511;28;20024;-66
2023/07/24 07:55:32;;;;;;;12.40;3.25;;;22.20;65.00;;;;;;6294438;28;20113;-70
2023/07/24 07:58:33;;;;;;;9.55;3.30;;;22.30;65.90;;;;;;6295423;28;20035;-69
2023/07/24 08:01:35;;;;;;;12.60;2.97;;;22.30;65.00;;;;;;6294391;28;20103;-69
2023/07/24 08:04:36;;;;;;;7.25;3.00;;;22.30;65.00;;;;;;6293252;28;20027;-69
2023/07/24 08:07:37;;;;;;;14.15;3.17;;;22.30;65.00;;;;;;6293462;28;20024;-68
2023/07/24 08:10:38;;;;;;;11.18;2.83;;;22.30;64.90;;;;;;6293669;28;20036;-67
2023/07/24 08:13:39;;;;;;;7.40;2.55;;;22.30;64.90;;;;;;6294128;28;20099;-67
2023/07/24 08:16:40;;;;;;;10.20;2.90;;;22.30;64.90;;;;;;6293572;28;20027;-67
2023/07/24 08:19:40;;;;;;;8.15;2.35;;;22.20;64.80;;;;;;6293419;28;20389;-67
2023/07/24 08:22:41;;;;;;;11.85;3.58;;;22.30;64.80;;;;;;6293983;28;20096;-68
2023/07/24 08:25:54;;;;;;;7.35;2.92;;;22.30;64.80;;;;;;6293230;28;20035;-67
2023/07/24 08:28:54;;;;;;;8.45;2.83;;;22.30;64.80;;;;;;6296096;28;20104;-67
2023/07/24 08:31:56;;;;;;;8.70;2.72;;;22.30;64.80;;;;;;6299388;28;20020;-69
2023/07/24 08:34:56;;;;;;;8.20;2.38;;;22.30;64.80;;;;;;6297984;28;20045;-69
2023/07/24 08:37:57;;;;;;;9.70;2.45;;;22.30;64.70;;;;;;6300275;28;20397;-72
2023/07/24 08:41:16;;;;;;;10.10;3.15;;;22.30;64.40;;;;;;6298817;28;20503;-73
2023/07/24 08:44:17;;;;;;;4.07;2.17;;;22.30;64.30;;;;;;6298741;28;20477;-72
2023/07/24 08:47:19;;;;;;;6.63;2.50;;;22.30;64.50;;;;;;6300486;28;20043;-73
2023/07/24 08:50:21;;;;;;;11.43;2.75;;;22.30;64.70;;;;;;6299040;28;20384;-67
2023/07/24 08:53:23;;;;;;;8.02;2.38;;;22.30;64.80;;;;;;6299766;28;20020;-75
2023/07/24 08:56:24;;;;;;;10.15;2.75;;;22.20;64.60;;;;;;6299366;28;20042;-71
2023/07/24 08:59:25;;;;;;;7.50;2.50;;;22.20;64.60;;;;;;6298727;28;20481;-69
2023/07/24 09:02:26;;;;;;;6.22;2.33;;;22.30;64.70;;;;;;6298013;28;20040;-72
2023/07/24 09:05:26;;;;;;;6.07;2.05;;;22.30;64.70;;;;;;6297562;28;20451;-69
2023/07/24 09:08:40;;;;;;;5.40;2.03;;;22.30;64.70;;;;;;6298564;28;20082;-69
2023/07/24 09:11:52;;;;;;;7.10;2.53;;;22.30;64.70;;;;;;6288449;28;20472;-70
2023/07/24 09:15:06;;;;;;;4.55;1.90;;;22.30;64.70;;;;;;6297180;28;20032;-70
2023/07/24 09:18:07;;;;;;;7.03;2.28;;;22.30;64.70;;;;;;6279551;28;20028;-71
2023/07/24 09:21:08;;;;;;;5.13;1.75;;;22.20;64.50;;;;;;6299185;28;20031;-71
2023/07/24 09:24:14;;;;;;;6.63;1.90;;;22.30;64.70;;;;;;6298423;28;20020;-70
2023/07/24 09:27:14;;;;;;;9.00;2.10;;;22.40;65.00;;;;;;6296020;28;20032;-70
2023/07/24 09:30:16;;;;;;;21.73;3.92;;;22.40;65.20;;;;;;6298849;28;20063;-69
2023/07/24 09:33:17;;;;;;;16.20;3.22;;;22.50;65.10;;;;;;6297362;28;20117;-70
2023/07/24 09:36:18;;;;;;;17.60;3.55;;;22.50;64.90;;;;;;6298393;28;20036;-69
2023/07/24 09:39:28;;;;;;;19.17;3.40;;;22.50;65.10;;;;;;6298568;28;20082;-70
2023/07/24 09:42:32;;;;;;;13.50;3.72;;;22.50;65.20;;;;;;6298611;28;20039;-69
2023/07/24 09:45:33;;;;;;;12.80;3.00;;;22.50;65.20;;;;;;6297459;28;20025;-69
2023/07/24 09:48:35;;;;;;;10.23;3.60;;;22.50;65.10;;;;;;6298451;28;20051;-70
2023/07/24 09:51:37;;;;;;;11.88;2.97;;;22.50;64.90;;;;;;6276524;28;20032;-70
2023/07/24 09:54:58;;;;;;;8.65;3.15;;;22.50;65.20;;;;;;6298407;28;20488;-70
2023/07/24 09:58:00;;;;;;;8.75;3.00;;;22.50;65.30;;;;;;6298103;28;20047;-69
2023/07/24 10:01:06;;;;;;;14.48;3.22;;;22.50;65.70;;;;;;6297591;28;20389;-69
2023/07/24 10:04:08;;;;;;;5.88;2.40;;;22.50;65.30;;;;;;6296987;28;20021;-69
2023/07/24 10:07:09;;;;;;;12.65;2.70;;;22.50;65.40;;;;;;6295823;28;20031;-69
2023/07/24 10:10:10;;;;;;;6.88;2.53;;;22.50;65.70;;;;;;6296475;28;20024;-69
2023/07/24 10:13:14;;;;;;;12.98;2.70;;;22.50;66.20;;;;;;6297202;28;20036;-69
2023/07/24 10:16:15;;;;;;;9.50;2.70;;;22.40;65.40;;;;;;6295618;28;20447;-69
2023/07/24 10:19:16;;;;;;;8.30;2.25;;;22.40;65.40;;;;;;6296887;28;20304;-70
2023/07/24 10:22:20;;;;;;;7.22;2.53;;;22.40;65.30;;;;;;6296268;28;20023;-69
2023/07/24 10:25:32;;;;;;;6.43;2.15;;;22.40;65.20;;;;;;6297250;28;20770;-68
2023/07/24 10:28:39;;;;;;;8.35;2.55;;;22.40;65.20;;;;;;6295597;28;20056;-71
2023/07/24 10:31:40;;;;;;;6.32;2.33;;;22.40;65.20;;;;;;6295655;28;20025;-70
2023/07/24 10:34:41;;;;;;;7.72;2.60;;;22.40;65.20;;;;;;6297553;28;20583;-70
2023/07/24 10:37:42;;;;;;;8.77;2.42;;;22.40;65.10;;;;;;6296088;28;20028;-70
2023/07/24 10:40:45;;;;;;;6.85;2.55;;;22.40;65.10;;;;;;6292832;28;20021;-71
2023/07/24 10:43:46;;;;;;;7.72;2.03;;;22.40;65.10;;;;;;6295987;28;20021;-70
2023/07/24 10:46:47;;;;;;;7.75;2.28;;;22.40;65.10;;;;;;6295202;28;20029;-70
2023/07/24 10:49:51;;;;;;;6.82;2.78;;;22.40;65.10;;;;;;6297158;28;20503;-70
2023/07/24 10:52:51;;;;;;;6.97;2.22;;;22.40;65.00;;;;;;6295944;28;20048;-71
2023/07/24 10:55:52;;;;;;;3.83;1.73;;;22.40;65.00;;;;;;6295594;28;20020;-70
2023/07/24 10:58:53;;;;;;;3.83;1.85;;;22.40;65.00;;;;;;6295503;28;20033;-70
2023/07/24 11:01:54;;;;;;;5.72;2.08;;;22.30;64.90;;;;;;6295977;28;20127;-70
2023/07/24 11:05:00;;;;;;;7.95;1.90;;;22.40;65.00;;;;;;6295007;28;20027;-70
2023/07/24 11:08:00;;;;;;;6.32;2.08;;;22.30;64.80;;;;;;6295529;28;20033;-71
2023/07/24 11:11:02;;;;;;;6.15;2.05;;;22.40;65.00;;;;;;6296404;28;20036;-71
2023/07/24 11:14:03;;;;;;;6.03;1.92;;;22.40;64.90;;;;;;6296476;28;20028;-70
2023/07/24 11:17:04;;;;;;;4.32;1.90;;;22.30;64.80;;;;;;6294711;28;20051;-70
2023/07/24 11:20:15;;;;;;;5.18;1.88;;;22.30;65.60;;;;;;6295043;28;20020;-70
2023/07/24 11:23:17;;;;;;;6.25;2.08;;;22.30;64.80;;;;;;6294489;28;20020;-69
2023/07/24 11:26:23;;;;;;;3.72;1.90;;;22.30;64.70;;;;;;6293828;28;20111;-69
2023/07/24 11:29:24;;;;;;;4.63;2.20;;;22.30;64.70;;;;;;6295190;28;20039;-71
2023/07/24 11:32:24;;;;;;;3.97;2.10;;;22.30;64.70;;;;;;6295188;28;20124;-69
2023/07/24 11:35:26;;;;;;;2.58;1.60;;;22.30;64.70;;;;;;6295235;28;20098;-69
2023/07/24 11:38:26;;;;;;;4.57;2.03;;;22.30;64.70;;;;;;6295172;28;20086;-69
2023/07/24 11:41:27;;;;;;;3.47;1.63;;;22.30;64.70;;;;;;6294531;28;20071;-69
2023/07/24 11:44:29;;;;;;;4.35;1.75;;;22.30;64.70;;;;;;6296451;28;20053;-69
2023/07/24 11:47:30;;;;;;;4.20;2.00;;;22.30;64.70;;;;;;6296305;28;20043;-69
2023/07/24 11:50:42;;;;;;;4.63;1.52;;;22.40;64.70;;;;;;6294550;28;20020;-69
2023/07/24 11:53:43;;;;;;;9.30;1.70;;;22.40;64.70;;;;;;6294121;28;20077;-70
2023/07/24 11:56:44;;;;;;;6.97;1.58;;;22.40;64.70;;;;;;6291390;28;20023;-69
2023/07/24 11:59:45;;;;;;;4.88;1.83;;;22.50;65.40;;;;;;6294859;28;20024;-70
2023/07/24 12:02:45;;;;;;;15.77;3.20;;;22.50;65.40;;;;;;6294355;28;20036;-69
2023/07/24 12:05:46;;;;;;;18.80;4.18;;;22.60;65.50;;;;;;6294233;28;20684;-69
2023/07/24 12:08:47;;;;;;;16.23;4.43;;;22.60;65.30;;;;;;6294799;28;20060;-68
2023/07/24 12:11:48;;;;;;;20.38;4.22;;;22.60;65.00;;;;;;6294397;28;20025;-67
2023/07/24 12:14:49;;;;;;;17.92;5.25;;;22.60;64.90;;;;;;6295095;28;20025;-69
2023/07/24 12:17:50;;;;;;;15.85;4.63;;;22.70;64.90;;;;;;6295822;28;20504;-69
2023/07/24 12:20:51;;;;;;;30.98;5.18;;;22.70;65.80;;;;;;6295267;28;20452;-69
2023/07/24 12:23:52;;;;;;;25.17;5.32;;;22.70;65.00;;;;;;6294988;28;20056;-69
2023/07/24 12:26:53;;;;;;;21.67;5.80;;;22.80;65.00;;;;;;6295263;28;20097;-70
2023/07/24 12:29:53;;;;;;;17.75;5.05;;;22.80;65.00;;;;;;6294170;28;20409;-70
2023/07/24 12:32:54;;;;;;;20.70;4.82;;;22.70;64.70;;;;;;6287412;28;20041;-70
2023/07/24 12:35:55;;;;;;;22.80;5.13;;;22.70;64.80;;;;;;6289632;28;20121;-70
2023/07/24 12:38:55;;;;;;;25.00;4.78;;;22.70;65.00;;;;;;6295079;28;20474;-70
2023/07/24 12:41:56;;;;;;;20.92;5.47;;;22.60;64.90;;;;;;6286450;28;20029;-70
2023/07/24 12:44:57;;;;;;;19.50;5.50;;;22.70;65.30;;;;;;6292489;28;20432;-70
2023/07/24 12:47:58;;;;;;;25.75;5.90;;;22.70;65.20;;;;;;6294148;28;20038;-69
2023/07/24 12:51:00;;;;;;;27.90;5.60;;;22.70;65.20;;;;;;6293927;28;20028;-69
2023/07/24 12:54:01;;;;;;;33.40;7.18;;;22.80;65.10;;;;;;6293992;28;20100;-70
2023/07/24 12:57:03;;;;;;;29.60;6.95;;;22.80;64.90;;;;;;6294250;28;20029;-70
2023/07/24 13:00:04;;;;;;;33.25;8.38;;;22.90;65.00;;;;;;6292497;28;20533;-70
2023/07/24 13:03:05;;;;;;;33.95;7.95;;;22.90;64.80;;;;;;6294223;28;20131;-70
2023/07/24 13:06:06;;;;;;;34.17;8.80;;;22.90;64.80;;;;;;6293553;28;20474;-70
2023/07/24 13:09:07;;;;;;;34.72;8.00;;;22.90;64.80;;;;;;6291459;28;20028;-70
2023/07/24 13:12:08;;;;;;;38.22;9.63;;;22.90;64.70;;;;;;6290564;28;20040;-69
2023/07/24 13:15:09;;;;;;;37.53;8.13;;;22.90;64.50;;;;;;6293163;28;20042;-70
2023/07/24 13:18:13;;;;;;;32.17;8.13;;;22.90;64.70;;;;;;6297307;28;20039;-69
2023/07/24 13:21:14;;;;;;;31.25;7.85;;;22.90;64.80;;;;;;6296099;28;20560;-69
2023/07/24 13:24:15;;;;;;;27.27;7.75;;;22.80;64.80;;;;;;6297843;28;20017;-66
2023/07/24 13:27:16;;;;;;;31.08;7.18;;;22.80;65.00;;;;;;6296983;28;20028;-66
2023/07/24 13:30:18;;;;;;;29.60;8.07;;;22.80;65.00;;;;;;6298110;28;20029;-67
2023/07/24 13:33:19;;;;;;;23.45;7.45;;;22.80;65.10;;;;;;6297637;28;20097;-67
2023/07/24 13:36:19;;;;;;;27.27;8.32;;;22.70;65.10;;;;;;6297506;28;20038;-68
2023/07/24 13:39:21;;;;;;;27.25;6.60;;;22.70;65.10;;;;;;6298024;28;20024;-67
2023/07/24 13:42:22;;;;;;;30.58;7.20;;;22.70;65.10;;;;;;6297857;28;20028;-67
2023/07/24 13:45:22;;;;;;;27.63;6.78;;;22.70;65.10;;;;;;6296194;28;20551;-67
2023/07/24 13:48:23;;;;;;;27.40;6.47;;;22.70;65.20;;;;;;6296871;28;20366;-67
2023/07/24 13:51:24;;;;;;;24.20;6.28;;;22.70;65.10;;;;;;6297583;28;20499;-65
2023/07/24 13:54:25;;;;;;;23.27;6.18;;;22.60;65.00;;;;;;6296878;28;20138;-66
2023/07/24 13:57:26;;;;;;;19.60;5.90;;;22.60;65.00;;;;;;6297080;28;20017;-66
2023/07/24 14:00:27;;;;;;;20.35;5.63;;;22.60;65.00;;;;;;6297010;28;20073;-67
2023/07/24 14:03:28;;;;;;;21.92;6.60;;;22.60;65.00;;;;;;6296751;28;20421;-67
2023/07/24 14:06:29;;;;;;;22.45;6.53;;;22.60;65.00;;;;;;6295000;28;20021;-67
2023/07/24 14:09:32;;;;;;;16.75;5.78;;;22.60;65.00;;;;;;6290210;28;20500;-68
2023/07/24 14:12:33;;;;;;;17.23;5.88;;;22.60;65.00;;;;;;6286995;28;20027;-67
2023/07/24 14:15:34;;;;;;;25.83;5.95;;;22.60;65.00;;;;;;6297095;28;20024;-67
2023/07/24 14:18:34;;;;;;;19.52;5.35;;;22.60;65.00;;;;;;6296229;28;20032;-67
2023/07/24 14:21:35;;;;;;;15.95;6.10;;;22.60;65.00;;;;;;6297105;28;20050;-67
2023/07/24 14:24:36;;;;;;;15.38;4.93;;;22.60;65.00;;;;;;6295651;28;20028;-68
2023/07/24 14:27:36;;;;;;;16.17;5.55;;;22.60;65.00;;;;;;6295617;28;20386;-67
2023/07/24 14:30:37;;;;;;;14.10;5.43;;;22.60;64.90;;;;;;6288304;28;20400;-67
2023/07/24 14:33:38;;;;;;;12.48;4.40;;;22.60;64.90;;;;;;6296133;28;20257;-67
2023/07/24 14:36:39;;;;;;;18.42;4.95;;;22.60;64.90;;;;;;6284706;28;20476;-68
2023/07/24 14:39:40;;;;;;;9.65;4.38;;;22.60;64.90;;;;;;6292364;28;20036;-66
2023/07/24 14:42:41;;;;;;;14.93;4.88;;;22.60;64.90;;;;;;6296830;28;20021;-67
2023/07/24 14:45:42;;;;;;;9.43;4.38;;;22.60;65.00;;;;;;6296020;28;20028;-66
2023/07/24 14:48:43;;;;;;;12.38;4.78;;;22.60;64.90;;;;;;6295324;28;20025;-66
2023/07/24 14:51:43;;;;;;;13.52;5.47;;;22.60;64.90;;;;;;6295014;28;20032;-66
2023/07/24 14:54:44;;;;;;;12.55;4.60;;;22.60;64.90;;;;;;6295983;28;20056;-68
2023/07/24 14:57:45;;;;;;;15.30;4.03;;;22.60;64.90;;;;;;6296081;28;20735;-67
2023/07/24 15:00:46;;;;;;;12.20;4.50;;;22.60;64.90;;;;;;6295032;28;20040;-66
2023/07/24 15:03:46;;;;;;;13.00;3.97;;;22.60;64.90;;;;;;6293710;28;20135;-66
2023/07/24 15:06:47;;;;;;;10.07;4.40;;;22.50;64.70;;;;;;6282868;28;20036;-67
2023/07/24 15:09:48;;;;;;;10.35;4.05;;;22.60;64.90;;;;;;6287751;28;20025;-67
2023/07/24 15:12:49;;;;;;;8.90;3.80;;;22.50;64.70;;;;;;6279095;28;20485;-68
2023/07/24 15:15:49;;;;;;;13.32;4.43;;;22.60;64.90;;;;;;6295168;28;20031;-67
2023/07/24 15:18:50;;;;;;;11.80;3.78;;;22.60;64.90;;;;;;6295251;28;20035;-66
2023/07/24 15:21:51;;;;;;;12.18;4.38;;;22.60;64.80;;;;;;6295027;28;20033;-67
2023/07/24 15:24:52;;;;;;;9.88;4.05;;;22.50;64.70;;;;;;6295083;28;20032;-67
2023/07/24 15:27:52;;;;;;;8.95;3.80;;;22.50;64.70;;;;;;6295410;28;20387;-67
2023/07/24 15:30:54;;;;;;;12.50;3.92;;;22.60;64.70;;;;;;6293906;28;20550;-68
2023/07/24 15:33:55;;;;;;;9.48;4.05;;;22.60;64.70;;;;;;6294695;28;20048;-67
2023/07/24 15:36:56;;;;;;;12.35;4.13;;;22.60;64.70;;;;;;6293343;28;20025;-67
2023/07/24 15:39:59;;;;;;;9.65;4.55;;;22.60;64.70;;;;;;6292582;28;20040;-66
2023/07/24 15:43:00;;;;;;;11.73;4.35;;;22.60;64.70;;;;;;6286759;28;20025;-67